Time;durP1;ratioP1;P1;durP2;ratioP2;P2;SDS_P1;SDS_P2;PMS_P1;PMS_P2;Temp;Humidity;BMP_temperature;BMP_pressure;BME280_temperature;BME280_humidity;BME280_pressure;Samples;Min_cycle;Max_cycle;Signal;HPM_P1;HPM_P2
2021/08/19 00:02:12;;;;;;;9.07;7.07;;;15.30;99.90;;;;;;4970739;28;20023;-53
2021/08/19 00:04:38;;;;;;;9.00;7.15;;;15.30;99.90;;;;;;4969913;28;20022;-55
2021/08/19 00:07:04;;;;;;;11.18;6.70;;;15.30;99.90;;;;;;4970176;28;20109;-52
2021/08/19 00:09:29;;;;;;;8.15;6.65;;;15.30;99.90;;;;;;4970121;28;20106;-54
2021/08/19 00:11:55;;;;;;;8.15;5.82;;;15.30;99.90;;;;;;4970257;28;20386;-55
2021/08/19 00:14:21;;;;;;;7.43;6.18;;;15.30;99.90;;;;;;4969820;28;20031;-50
2021/08/19 00:16:46;;;;;;;7.55;6.28;;;15.30;99.90;;;;;;4968523;28;20093;-53
2021/08/19 00:19:12;;;;;;;8.70;6.25;;;15.20;99.90;;;;;;4969964;28;20564;-51
2021/08/19 00:21:38;;;;;;;11.35;6.60;;;15.20;99.90;;;;;;4969943;28;20019;-55
2021/08/19 00:24:04;;;;;;;9.55;6.22;;;15.20;99.90;;;;;;4969433;28;20400;-52
2021/08/19 00:26:45;;;;;;;8.60;6.80;;;15.20;99.90;;;;;;4969713;28;20019;-51
2021/08/19 00:29:10;;;;;;;10.15;7.03;;;15.20;99.90;;;;;;4967292;28;20053;-50
2021/08/19 00:31:36;;;;;;;11.65;8.18;;;15.20;99.90;;;;;;4970209;28;20486;-50
2021/08/19 00:34:01;;;;;;;8.52;6.82;;;15.20;99.90;;;;;;4969587;28;20529;-54
2021/08/19 00:36:27;;;;;;;8.60;6.60;;;15.20;99.90;;;;;;4969057;28;20106;-48
2021/08/19 00:38:53;;;;;;;8.63;6.97;;;15.10;99.90;;;;;;4970077;28;20042;-51
2021/08/19 00:41:19;;;;;;;9.40;6.60;;;15.10;99.90;;;;;;4969694;28;20078;-48
2021/08/19 00:43:45;;;;;;;14.45;6.05;;;15.10;99.90;;;;;;4969918;28;20087;-49
2021/08/19 00:46:44;;;;;;;8.52;7.38;;;15.10;99.90;;;;;;4969421;28;20042;-50
2021/08/19 00:49:11;;;;;;;7.97;6.53;;;15.10;99.90;;;;;;4926867;28;20031;-50
2021/08/19 00:51:42;;;;;;;8.77;6.57;;;15.10;99.90;;;;;;4969704;28;20030;-50
2021/08/19 00:54:10;;;;;;;7.57;6.55;;;15.10;99.90;;;;;;4969846;28;20058;-53
2021/08/19 00:56:38;;;;;;;7.53;6.60;;;15.10;99.90;;;;;;4969075;28;20047;-54
2021/08/19 00:59:05;;;;;;;7.32;5.78;;;15.10;99.90;;;;;;4964908;28;20038;-54
2021/08/19 01:01:32;;;;;;;10.10;6.60;;;15.00;99.90;;;;;;4973482;28;20459;-54
2021/08/19 01:03:58;;;;;;;8.40;6.57;;;15.10;99.90;;;;;;4973971;28;20033;-52
2021/08/19 01:06:24;;;;;;;10.10;6.50;;;15.10;99.90;;;;;;4975631;28;20393;-48
2021/08/19 01:08:51;;;;;;;10.93;7.28;;;15.10;99.90;;;;;;4975844;28;20430;-48
2021/08/19 01:11:19;;;;;;;9.98;7.32;;;15.00;99.90;;;;;;4971640;28;20018;-53
2021/08/19 01:13:45;;;;;;;8.40;6.40;;;15.00;99.90;;;;;;4975925;28;20121;-51
2021/08/19 01:16:11;;;;;;;10.90;7.20;;;15.00;99.90;;;;;;4975359;28;20029;-54
2021/08/19 01:18:46;;;;;;;10.52;6.93;;;15.10;99.90;;;;;;4974876;28;20412;-49
2021/08/19 01:21:16;;;;;;;8.75;7.45;;;15.00;99.90;;;;;;4975731;28;20122;-49
2021/08/19 01:23:43;;;;;;;7.15;5.93;;;15.00;99.90;;;;;;4975994;28;20038;-49
2021/08/19 01:26:15;;;;;;;10.00;6.90;;;15.10;99.90;;;;;;4990058;28;20059;-49
2021/08/19 01:28:42;;;;;;;8.88;5.85;;;15.00;99.90;;;;;;4981854;28;20050;-51
2021/08/19 01:31:12;;;;;;;8.48;7.65;;;15.00;99.90;;;;;;4975307;28;20031;-55
2021/08/19 01:33:41;;;;;;;8.27;6.80;;;15.00;99.90;;;;;;4975299;28;20026;-52
2021/08/19 01:36:07;;;;;;;9.63;6.85;;;14.90;99.90;;;;;;4975372;28;20029;-55
2021/08/19 01:38:34;;;;;;;9.57;6.95;;;14.90;99.90;;;;;;4975448;28;20023;-51
2021/08/19 01:41:01;;;;;;;7.90;7.10;;;14.90;99.90;;;;;;4975293;28;20023;-51
2021/08/19 01:43:28;;;;;;;8.32;7.10;;;14.80;99.90;;;;;;4975181;28;20030;-49
2021/08/19 01:45:57;;;;;;;9.95;8.20;;;14.80;99.90;;;;;;4971952;28;20037;-57
2021/08/19 01:48:23;;;;;;;10.88;7.85;;;14.70;99.90;;;;;;4975761;28;20113;-55
2021/08/19 01:50:49;;;;;;;8.48;6.45;;;14.70;99.90;;;;;;4974924;28;20114;-50
2021/08/19 01:53:14;;;;;;;6.57;5.88;;;14.70;99.90;;;;;;4975595;28;20026;-52
2021/08/19 01:55:40;;;;;;;6.28;5.60;;;14.70;99.90;;;;;;4974962;28;20496;-50
2021/08/19 01:58:06;;;;;;;6.05;5.45;;;14.60;99.90;;;;;;4975198;28;20038;-51
2021/08/19 02:00:32;;;;;;;5.25;4.72;;;14.60;99.90;;;;;;4975238;28;20069;-52
2021/08/19 02:03:00;;;;;;;4.68;3.95;;;14.60;99.90;;;;;;4975369;28;20086;-51
2021/08/19 02:05:26;;;;;;;6.35;4.28;;;14.60;99.90;;;;;;4975259;28;20049;-52
2021/08/19 02:07:52;;;;;;;4.70;3.65;;;14.50;99.90;;;;;;4975117;28;20105;-47
2021/08/19 02:10:17;;;;;;;5.15;3.60;;;14.50;99.90;;;;;;4967533;28;20026;-49
2021/08/19 02:12:44;;;;;;;7.47;3.47;;;14.50;99.90;;;;;;4971252;28;20023;-48
2021/08/19 02:15:12;;;;;;;3.08;2.65;;;14.50;99.90;;;;;;4972006;28;20600;-47
2021/08/19 02:17:37;;;;;;;3.42;3.08;;;14.50;99.90;;;;;;4972313;28;20703;-49
2021/08/19 02:20:04;;;;;;;5.47;3.63;;;14.50;99.90;;;;;;4971910;28;20109;-49
2021/08/19 02:22:29;;;;;;;5.95;4.28;;;14.50;99.90;;;;;;4972196;28;20430;-50
2021/08/19 02:24:55;;;;;;;5.32;4.30;;;14.50;99.90;;;;;;4971505;28;20034;-47
2021/08/19 02:27:21;;;;;;;6.82;6.05;;;14.50;99.90;;;;;;4974141;28;20050;-49
2021/08/19 02:29:48;;;;;;;5.78;4.65;;;14.50;99.90;;;;;;4975525;28;20049;-52
2021/08/19 02:32:13;;;;;;;6.95;5.43;;;14.50;99.90;;;;;;4971739;28;20062;-50
2021/08/19 02:34:39;;;;;;;5.38;4.80;;;14.50;99.90;;;;;;4971423;28;20069;-47
2021/08/19 02:37:04;;;;;;;7.50;5.45;;;14.50;99.90;;;;;;4971752;28;20027;-46
2021/08/19 02:39:30;;;;;;;8.38;5.60;;;14.50;99.90;;;;;;4972046;28;20027;-48
2021/08/19 02:41:55;;;;;;;11.13;7.35;;;14.40;99.90;;;;;;4971037;28;20027;-51
2021/08/19 02:44:21;;;;;;;7.43;6.72;;;14.40;99.90;;;;;;4971181;28;20035;-47
2021/08/19 02:46:46;;;;;;;8.52;6.72;;;14.40;99.90;;;;;;4971497;28;20034;-50
2021/08/19 02:49:12;;;;;;;8.45;6.65;;;14.40;99.90;;;;;;4970236;28;20034;-49
2021/08/19 02:51:37;;;;;;;8.13;6.93;;;14.40;99.90;;;;;;4971063;28;20035;-51
2021/08/19 02:54:03;;;;;;;7.78;6.97;;;14.40;99.90;;;;;;4971139;28;20042;-49
2021/08/19 02:56:28;;;;;;;8.18;7.22;;;14.40;99.90;;;;;;4972086;28;20034;-51
2021/08/19 02:58:54;;;;;;;8.68;7.30;;;14.40;99.90;;;;;;4970891;28;20100;-52
2021/08/19 03:01:20;;;;;;;9.60;7.20;;;14.30;99.90;;;;;;4971310;28;20430;-51
2021/08/19 03:03:45;;;;;;;7.63;6.75;;;14.30;99.90;;;;;;4970728;28;20026;-50
2021/08/19 03:06:11;;;;;;;8.50;7.28;;;14.30;99.90;;;;;;4970633;28;20436;-48
2021/08/19 03:08:36;;;;;;;10.27;7.90;;;14.30;99.90;;;;;;4970520;28;20445;-51
2021/08/19 03:11:02;;;;;;;9.55;7.78;;;14.20;99.90;;;;;;4970599;28;20459;-50
2021/08/19 03:13:27;;;;;;;9.85;7.30;;;14.20;99.90;;;;;;4971085;28;20126;-48
2021/08/19 03:15:53;;;;;;;8.07;6.90;;;14.30;99.90;;;;;;4966445;28;20027;-50
2021/08/19 03:18:18;;;;;;;9.68;6.68;;;14.20;99.90;;;;;;4971101;28;20054;-55
2021/08/19 03:20:44;;;;;;;10.93;6.28;;;14.20;99.90;;;;;;4971150;28;20022;-49
2021/08/19 03:23:09;;;;;;;7.10;5.47;;;14.20;99.90;;;;;;4970689;28;20023;-49
2021/08/19 03:25:35;;;;;;;6.50;5.82;;;14.20;99.90;;;;;;4970636;28;20029;-51
2021/08/19 03:28:03;;;;;;;7.88;5.00;;;14.20;99.90;;;;;;4976392;28;20034;-49
2021/08/19 03:30:28;;;;;;;6.70;4.40;;;14.10;99.90;;;;;;4971094;28;20023;-49
2021/08/19 03:32:54;;;;;;;6.15;4.53;;;14.10;99.90;;;;;;4970669;28;20030;-51
2021/08/19 03:35:20;;;;;;;6.95;4.90;;;14.10;99.90;;;;;;4970495;28;20027;-52
2021/08/19 03:37:46;;;;;;;4.93;4.35;;;14.10;99.90;;;;;;4970931;28;20093;-51
2021/08/19 03:40:12;;;;;;;5.22;3.97;;;14.10;99.90;;;;;;4970602;28;20136;-51
2021/08/19 03:42:38;;;;;;;10.80;4.78;;;14.00;99.90;;;;;;4970880;28;20023;-51
2021/08/19 03:45:09;;;;;;;6.15;4.43;;;14.00;99.90;;;;;;4970284;28;20011;-49
2021/08/19 03:47:34;;;;;;;5.85;3.88;;;14.00;99.90;;;;;;4969013;28;20029;-54
2021/08/19 03:50:00;;;;;;;5.60;3.92;;;14.00;99.90;;;;;;4970209;28;20030;-51
2021/08/19 03:52:26;;;;;;;7.95;4.35;;;14.00;99.90;;;;;;4970287;28;20033;-52
2021/08/19 03:54:51;;;;;;;5.80;4.22;;;14.00;99.90;;;;;;4969732;28;20023;-49
2021/08/19 03:57:17;;;;;;;5.97;4.10;;;14.00;99.90;;;;;;4968888;28;20019;-55
2021/08/19 03:59:42;;;;;;;5.07;3.75;;;14.00;99.90;;;;;;4969791;28;20037;-52
2021/08/19 04:02:08;;;;;;;4.55;4.00;;;14.00;99.90;;;;;;4969886;28;20026;-53
2021/08/19 04:04:33;;;;;;;6.43;4.05;;;13.90;99.90;;;;;;4969843;28;20093;-51
2021/08/19 04:06:59;;;;;;;6.85;4.63;;;13.90;99.90;;;;;;4969972;28;20485;-51
2021/08/19 04:09:25;;;;;;;5.25;4.18;;;13.90;99.90;;;;;;4969477;28;20027;-50
2021/08/19 04:11:50;;;;;;;8.52;4.45;;;13.90;99.90;;;;;;4969534;28;20031;-52
2021/08/19 04:14:16;;;;;;;6.45;4.45;;;14.00;99.90;;;;;;4969486;28;20027;-54
2021/08/19 04:16:41;;;;;;;5.55;4.18;;;14.00;99.90;;;;;;4969715;28;20584;-55
2021/08/19 04:19:07;;;;;;;5.50;4.47;;;14.00;99.90;;;;;;4970098;28;20026;-51
2021/08/19 04:21:33;;;;;;;7.28;4.65;;;14.00;99.90;;;;;;4969165;28;20042;-54
2021/08/19 04:23:58;;;;;;;8.63;4.78;;;13.90;99.90;;;;;;4969380;28;20220;-52
2021/08/19 04:26:24;;;;;;;5.65;4.38;;;14.00;99.90;;;;;;4969353;28;20033;-52
2021/08/19 04:28:49;;;;;;;7.93;5.50;;;13.90;99.90;;;;;;4976169;28;20014;-50
2021/08/19 04:31:15;;;;;;;7.68;5.57;;;13.90;99.90;;;;;;4970098;28;20422;-53
2021/08/19 04:33:40;;;;;;;6.68;4.90;;;14.00;99.90;;;;;;4969591;28;20031;-52
2021/08/19 04:36:06;;;;;;;5.13;4.50;;;13.90;99.90;;;;;;4968277;28;20022;-55
2021/08/19 04:38:33;;;;;;;9.98;4.82;;;14.00;99.90;;;;;;4969580;28;20063;-51
2021/08/19 04:40:59;;;;;;;7.38;4.82;;;13.90;99.90;;;;;;4969869;28;20521;-56
2021/08/19 04:43:25;;;;;;;6.82;4.47;;;14.00;99.90;;;;;;4969509;28;20098;-55
2021/08/19 04:45:50;;;;;;;6.30;4.25;;;14.00;99.90;;;;;;4969538;28;20130;-51
2021/08/19 04:48:16;;;;;;;7.97;5.18;;;14.00;99.90;;;;;;4969232;28;20035;-51
2021/08/19 04:50:42;;;;;;;7.13;4.43;;;14.00;99.90;;;;;;4970193;28;20027;-55
2021/08/19 04:53:08;;;;;;;8.85;4.90;;;14.00;99.90;;;;;;4969526;28;20025;-54
2021/08/19 04:55:33;;;;;;;5.97;4.90;;;14.00;99.90;;;;;;4969251;28;20019;-53
2021/08/19 04:57:59;;;;;;;7.78;4.88;;;14.00;99.90;;;;;;4969598;28;20105;-51
2021/08/19 05:00:24;;;;;;;5.78;4.90;;;14.00;99.90;;;;;;5008782;23;20085;-47
2021/08/19 05:02:50;;;;;;;5.07;4.43;;;14.00;99.90;;;;;;4992725;28;20361;-48
2021/08/19 05:05:15;;;;;;;8.98;4.97;;;14.00;99.90;;;;;;4991853;28;20026;-48
2021/08/19 05:07:41;;;;;;;7.35;4.53;;;14.00;99.90;;;;;;4995967;28;20034;-48
2021/08/19 05:10:07;;;;;;;6.32;4.25;;;14.00;99.90;;;;;;4989981;28;20026;-48
2021/08/19 05:12:33;;;;;;;6.55;4.97;;;14.10;99.90;;;;;;4987416;28;20157;-47
2021/08/19 05:14:58;;;;;;;5.20;4.55;;;14.00;99.90;;;;;;4988592;28;20113;-47
2021/08/19 05:17:24;;;;;;;5.22;4.10;;;14.00;99.90;;;;;;4988987;28;20057;-49
2021/08/19 05:19:49;;;;;;;3.85;3.35;;;14.10;99.90;;;;;;4989008;28;20011;-49
2021/08/19 05:22:15;;;;;;;6.32;3.63;;;14.00;99.90;;;;;;4989261;28;20034;-50
2021/08/19 05:24:40;;;;;;;5.00;3.47;;;14.00;99.90;;;;;;4987552;28;20107;-49
2021/08/19 05:27:06;;;;;;;4.68;3.00;;;14.00;99.90;;;;;;4988928;28;20081;-48
2021/08/19 05:29:32;;;;;;;4.57;3.05;;;14.00;99.90;;;;;;4988944;28;20105;-49
2021/08/19 05:31:57;;;;;;;5.07;3.78;;;14.00;99.90;;;;;;4988857;28;20030;-47
2021/08/19 05:34:23;;;;;;;4.93;3.03;;;14.10;99.90;;;;;;4988690;28;20014;-49
2021/08/19 05:36:48;;;;;;;6.78;3.55;;;14.00;99.90;;;;;;4988474;28;20023;-47
2021/08/19 05:39:14;;;;;;;6.28;3.13;;;14.10;99.90;;;;;;4987542;28;20030;-50
2021/08/19 05:41:40;;;;;;;11.13;3.65;;;14.10;99.90;;;;;;4988373;28;20512;-48
2021/08/19 05:44:05;;;;;;;5.63;3.42;;;14.10;99.90;;;;;;4988434;28;20060;-48
2021/08/19 05:46:31;;;;;;;4.05;3.33;;;14.10;99.90;;;;;;4989809;28;20042;-49
2021/08/19 05:48:56;;;;;;;5.47;3.03;;;14.20;99.90;;;;;;4992531;28;20102;-49
2021/08/19 05:51:22;;;;;;;5.95;3.17;;;14.20;99.90;;;;;;4992182;28;20437;-49
2021/08/19 05:53:48;;;;;;;5.18;3.78;;;14.20;99.90;;;;;;4985106;28;20027;-49
2021/08/19 05:56:13;;;;;;;3.97;3.10;;;14.20;99.90;;;;;;4992281;28;20428;-47
2021/08/19 05:58:39;;;;;;;4.85;3.50;;;14.20;99.90;;;;;;4993048;28;20015;-48
2021/08/19 06:01:04;;;;;;;3.75;2.90;;;14.20;99.90;;;;;;4992580;28;20031;-47
2021/08/19 06:03:30;;;;;;;4.80;4.20;;;14.20;99.90;;;;;;4992883;28;20018;-48
2021/08/19 06:05:56;;;;;;;5.28;4.00;;;14.30;99.90;;;;;;4991799;28;20630;-46
2021/08/19 06:08:21;;;;;;;5.68;4.50;;;14.30;99.90;;;;;;4987142;28;20485;-49
2021/08/19 06:10:47;;;;;;;6.72;5.28;;;14.30;99.90;;;;;;4987890;28;20042;-48
2021/08/19 06:13:13;;;;;;;6.57;4.60;;;14.40;99.90;;;;;;4990407;28;20026;-48
2021/08/19 06:15:39;;;;;;;6.97;5.95;;;14.40;99.90;;;;;;4988952;28;20197;-50
2021/08/19 06:18:05;;;;;;;7.93;5.75;;;14.40;99.90;;;;;;4979116;28;20548;-48
2021/08/19 06:20:31;;;;;;;8.70;6.20;;;14.40;99.90;;;;;;4992356;28;20085;-48
2021/08/19 06:22:56;;;;;;;11.68;6.47;;;14.50;99.90;;;;;;4998199;28;20029;-49
2021/08/19 06:25:23;;;;;;;8.88;6.45;;;14.60;99.90;;;;;;4995599;28;20157;-49
2021/08/19 06:27:49;;;;;;;9.63;6.32;;;14.70;99.90;;;;;;4981319;28;20548;-47
2021/08/19 06:30:14;;;;;;;9.95;8.23;;;14.80;99.90;;;;;;4978767;28;20160;-48
2021/08/19 06:32:40;;;;;;;8.45;7.63;;;14.90;99.90;;;;;;4976646;28;20033;-50
2021/08/19 06:35:08;;;;;;;9.32;7.97;;;15.00;99.90;;;;;;4992867;28;20022;-47
2021/08/19 06:37:34;;;;;;;9.00;8.13;;;15.00;99.90;;;;;;4989991;28;20053;-48
2021/08/19 06:39:59;;;;;;;10.05;8.70;;;15.00;99.90;;;;;;4993702;28;20054;-48
2021/08/19 06:42:25;;;;;;;10.85;8.02;;;15.10;99.90;;;;;;4995643;28;20022;-47
2021/08/19 06:44:50;;;;;;;8.40;7.30;;;15.10;99.90;;;;;;5000049;28;20484;-47
2021/08/19 06:47:16;;;;;;;12.77;8.68;;;15.20;99.90;;;;;;4992963;28;20100;-49
2021/08/19 06:49:43;;;;;;;9.75;7.88;;;15.10;99.90;;;;;;5000275;28;20026;-48
2021/08/19 06:52:09;;;;;;;9.82;8.05;;;15.20;99.90;;;;;;4991346;28;20054;-47
2021/08/19 06:54:35;;;;;;;11.18;7.90;;;15.20;99.90;;;;;;4997643;28;20038;-49
2021/08/19 06:57:01;;;;;;;10.38;7.45;;;15.20;99.90;;;;;;4993244;28;20381;-49
2021/08/19 06:59:28;;;;;;;10.68;7.97;;;15.20;99.90;;;;;;4994523;28;20026;-48
2021/08/19 07:01:53;;;;;;;8.85;7.53;;;15.30;99.90;;;;;;5001741;28;20068;-46
2021/08/19 07:04:19;;;;;;;13.25;7.63;;;15.30;99.90;;;;;;4992216;28;20030;-48
2021/08/19 07:06:46;;;;;;;10.45;7.18;;;15.30;99.90;;;;;;4986003;28;20112;-50
2021/08/19 07:09:12;;;;;;;11.05;7.20;;;15.30;99.90;;;;;;4990127;28;20046;-49
2021/08/19 07:11:38;;;;;;;13.38;8.20;;;15.30;99.90;;;;;;4989508;28;20025;-47
2021/08/19 07:14:04;;;;;;;11.60;7.72;;;15.20;99.90;;;;;;4990447;28;20034;-48
2021/08/19 07:16:29;;;;;;;11.57;7.10;;;15.30;99.90;;;;;;4989993;28;20022;-48
2021/08/19 07:18:55;;;;;;;13.07;7.88;;;15.30;99.90;;;;;;4990393;28;20045;-48
2021/08/19 07:21:20;;;;;;;10.27;7.82;;;15.30;99.90;;;;;;4990194;28;20026;-48
2021/08/19 07:23:46;;;;;;;11.95;8.20;;;15.40;99.90;;;;;;4990238;28;20030;-48
2021/08/19 07:26:12;;;;;;;10.27;7.13;;;15.40;99.90;;;;;;4989902;28;20041;-48
2021/08/19 07:28:37;;;;;;;10.07;6.82;;;15.40;99.90;;;;;;4990116;28;20516;-48
2021/08/19 07:31:03;;;;;;;9.07;7.47;;;15.50;99.90;;;;;;4990283;28;20138;-48
2021/08/19 07:33:28;;;;;;;11.27;7.40;;;15.50;99.90;;;;;;4988764;28;20015;-50
2021/08/19 07:35:54;;;;;;;11.25;7.50;;;15.50;99.90;;;;;;4989575;28;20030;-48
2021/08/19 07:38:20;;;;;;;13.23;7.72;;;15.50;99.90;;;;;;4989783;28;20019;-48
2021/08/19 07:40:47;;;;;;;14.27;8.32;;;15.50;99.90;;;;;;4989789;28;20022;-48
2021/08/19 07:43:13;;;;;;;10.82;7.85;;;15.60;99.90;;;;;;4989436;28;20080;-49
2021/08/19 07:45:39;;;;;;;10.73;7.65;;;15.70;99.90;;;;;;4989658;28;20023;-49
2021/08/19 07:48:13;;;;;;;10.75;7.13;;;15.80;99.90;;;;;;4990196;28;20057;-48
2021/08/19 07:50:39;;;;;;;9.05;7.20;;;15.90;99.90;;;;;;4985144;28;20600;-50
2021/08/19 07:53:05;;;;;;;8.30;6.90;;;16.00;99.90;;;;;;4990158;28;20043;-48
2021/08/19 07:55:31;;;;;;;11.23;6.43;;;16.10;99.90;;;;;;4989613;28;20022;-48
2021/08/19 07:57:57;;;;;;;10.52;6.50;;;16.20;99.90;;;;;;4989517;28;20037;-47
2021/08/19 08:00:29;;;;;;;12.65;6.13;;;16.30;99.90;;;;;;4989508;28;20026;-50
2021/08/19 08:02:55;;;;;;;12.02;6.25;;;16.50;99.90;;;;;;4989639;28;20023;-49
2021/08/19 08:05:22;;;;;;;9.38;5.47;;;16.50;99.90;;;;;;4987782;28;20058;-48
2021/08/19 08:07:48;;;;;;;8.27;6.07;;;16.60;99.90;;;;;;4989146;28;20038;-48
2021/08/19 08:10:14;;;;;;;10.07;5.82;;;16.60;99.90;;;;;;4988573;28;20030;-49
2021/08/19 08:12:40;;;;;;;12.82;5.88;;;16.60;99.90;;;;;;4989239;28;20054;-49
2021/08/19 08:15:06;;;;;;;5.53;4.82;;;16.70;99.90;;;;;;4988998;28;20576;-49
2021/08/19 08:17:33;;;;;;;9.25;5.30;;;16.70;99.90;;;;;;4989439;28;20105;-48
2021/08/19 08:19:58;;;;;;;7.72;5.45;;;16.80;99.90;;;;;;4988205;28;20022;-49
2021/08/19 08:22:24;;;;;;;8.10;5.60;;;16.80;99.90;;;;;;4989360;28;20080;-49
2021/08/19 08:24:50;;;;;;;7.72;5.65;;;16.80;99.90;;;;;;4982402;28;20455;-50
2021/08/19 08:27:15;;;;;;;9.23;5.55;;;16.90;99.90;;;;;;4988706;28;20026;-49
2021/08/19 08:29:41;;;;;;;7.88;5.28;;;17.00;99.90;;;;;;4988012;28;20057;-48
2021/08/19 08:32:09;;;;;;;7.65;4.43;;;17.20;99.90;;;;;;4976063;28;20531;-49
2021/08/19 08:34:39;;;;;;;8.88;5.65;;;17.20;99.90;;;;;;4974536;28;20035;-50
2021/08/19 08:37:05;;;;;;;6.72;4.47;;;17.20;99.90;;;;;;4978547;28;20106;-49
2021/08/19 08:39:33;;;;;;;6.20;4.65;;;17.30;99.90;;;;;;4990493;28;20476;-50
2021/08/19 08:41:59;;;;;;;5.88;3.78;;;17.30;99.90;;;;;;4992733;28;20373;-50
2021/08/19 08:44:28;;;;;;;6.70;4.38;;;17.30;99.90;;;;;;4988624;28;20531;-49
2021/08/19 08:46:55;;;;;;;6.50;4.20;;;17.30;99.90;;;;;;4979266;28;20080;-51
2021/08/19 08:49:23;;;;;;;8.65;4.72;;;17.30;99.90;;;;;;4974726;28;20096;-48
2021/08/19 08:51:52;;;;;;;5.40;4.03;;;17.40;99.90;;;;;;4978097;28;20030;-50
2021/08/19 08:54:18;;;;;;;7.60;4.50;;;17.40;99.90;;;;;;4991650;28;20623;-51
2021/08/19 08:56:44;;;;;;;9.70;5.35;;;17.40;99.90;;;;;;4991670;28;20109;-51
2021/08/19 08:59:10;;;;;;;9.45;4.68;;;17.50;99.90;;;;;;4989897;28;20101;-49
2021/08/19 09:01:35;;;;;;;6.30;4.18;;;17.80;99.90;;;;;;4997324;28;20022;-50
2021/08/19 09:04:03;;;;;;;6.40;4.35;;;18.10;99.90;;;;;;4990456;28;20502;-50
2021/08/19 09:06:40;;;;;;;8.73;4.78;;;18.30;99.90;;;;;;4991070;28;20022;-50
2021/08/19 09:09:22;;;;;;;4.80;3.75;;;18.40;99.90;;;;;;4986513;28;20026;-50
2021/08/19 09:11:54;;;;;;;5.65;4.15;;;18.60;99.90;;;;;;4988267;28;20065;-50
2021/08/19 09:14:23;;;;;;;6.28;4.10;;;18.70;99.90;;;;;;4982991;28;20023;-50
2021/08/19 09:16:49;;;;;;;6.40;3.90;;;18.90;99.90;;;;;;4987760;28;20376;-52
2021/08/19 09:19:18;;;;;;;9.13;3.92;;;18.90;99.90;;;;;;4987459;28;20061;-51
2021/08/19 09:21:52;;;;;;;6.15;3.38;;;18.90;99.90;;;;;;4988504;28;20464;-51
2021/08/19 09:24:25;;;;;;;7.85;3.80;;;18.90;99.90;;;;;;4979524;28;20030;-51
2021/08/19 09:26:53;;;;;;;4.55;3.05;;;18.80;99.90;;;;;;4974029;28;20720;-51
2021/08/19 09:29:25;;;;;;;7.38;4.05;;;18.80;99.90;;;;;;4995613;28;20053;-51
2021/08/19 09:31:54;;;;;;;10.00;4.00;;;18.80;99.90;;;;;;4998735;28;20109;-52
2021/08/19 09:34:20;;;;;;;5.43;3.45;;;18.70;99.90;;;;;;4987068;28;20029;-55
2021/08/19 09:36:46;;;;;;;6.68;4.28;;;18.60;99.90;;;;;;4997613;28;20015;-54
2021/08/19 09:39:12;;;;;;;7.28;3.58;;;18.60;99.90;;;;;;4993368;28;20089;-51
2021/08/19 09:41:51;;;;;;;5.88;3.70;;;18.70;99.90;;;;;;4996460;28;20494;-53
2021/08/19 09:44:47;;;;;;;7.82;4.18;;;18.60;99.90;;;;;;4982459;28;20022;-50
2021/08/19 09:47:32;;;;;;;7.60;4.90;;;18.60;99.90;;;;;;4979297;28;20105;-51
2021/08/19 09:50:19;;;;;;;5.10;3.65;;;18.70;99.90;;;;;;4973430;28;20023;-51
2021/08/19 09:52:47;;;;;;;6.22;3.72;;;18.70;99.90;;;;;;4983289;28;20030;-51
2021/08/19 09:55:26;;;;;;;4.80;4.05;;;18.70;99.90;;;;;;4992269;28;20531;-51
2021/08/19 09:57:59;;;;;;;7.22;3.70;;;18.60;99.90;;;;;;4992311;28;20388;-52
2021/08/19 10:00:37;;;;;;;5.78;4.32;;;18.70;99.90;;;;;;4952044;28;1039267;-51
2021/08/19 10:03:03;;;;;;;7.82;3.95;;;18.70;99.90;;;;;;4999883;28;20018;-51
2021/08/19 10:05:28;;;;;;;7.03;3.72;;;18.70;99.90;;;;;;4989599;28;20088;-51
2021/08/19 10:07:54;;;;;;;5.47;3.78;;;18.70;99.90;;;;;;4991913;28;20035;-50
2021/08/19 10:10:20;;;;;;;7.43;4.32;;;18.70;99.90;;;;;;4989856;28;20023;-51
2021/08/19 10:12:48;;;;;;;6.20;4.25;;;18.70;99.90;;;;;;4991479;28;20034;-50
2021/08/19 10:15:14;;;;;;;9.27;4.50;;;18.60;99.90;;;;;;4991255;28;20049;-52
2021/08/19 10:17:45;;;;;;;8.88;4.72;;;18.60;99.90;;;;;;4991970;28;20018;-51
2021/08/19 10:20:14;;;;;;;8.32;4.60;;;18.70;99.90;;;;;;4991502;28;20030;-49
2021/08/19 10:22:40;;;;;;;6.53;4.18;;;18.60;99.90;;;;;;4991594;28;20090;-52
2021/08/19 10:25:07;;;;;;;8.32;4.57;;;18.50;99.90;;;;;;4990705;28;20038;-51
2021/08/19 10:27:32;;;;;;;8.20;4.43;;;18.50;99.90;;;;;;4991419;28;20030;-53
2021/08/19 10:30:00;;;;;;;7.25;4.60;;;18.50;99.90;;;;;;4991226;28;20033;-52
2021/08/19 10:32:38;;;;;;;9.32;4.50;;;18.50;99.90;;;;;;4990575;28;20110;-50
2021/08/19 10:35:08;;;;;;;7.30;4.40;;;18.60;99.90;;;;;;4990263;28;20751;-52
2021/08/19 10:37:49;;;;;;;11.57;5.25;;;18.70;99.90;;;;;;4989738;28;20014;-51
2021/08/19 10:40:36;;;;;;;8.77;4.55;;;18.90;99.90;;;;;;4990857;28;20370;-52
2021/08/19 10:43:30;;;;;;;5.40;3.83;;;18.90;99.90;;;;;;4990780;28;20019;-52
2021/08/19 10:46:10;;;;;;;5.00;3.75;;;18.90;99.90;;;;;;4988199;28;20033;-53
2021/08/19 10:48:48;;;;;;;5.20;4.57;;;19.10;99.90;;;;;;4990759;28;20026;-53
2021/08/19 10:51:14;;;;;;;5.68;4.30;;;19.40;99.90;;;;;;4991032;28;20031;-53
2021/08/19 10:53:40;;;;;;;8.68;4.88;;;19.60;99.90;;;;;;4990556;28;20038;-52
2021/08/19 10:56:05;;;;;;;7.65;4.10;;;19.80;99.90;;;;;;4988901;28;20517;-52
2021/08/19 10:58:33;;;;;;;8.80;5.13;;;19.90;99.90;;;;;;4990420;28;20102;-54
2021/08/19 11:01:14;;;;;;;8.40;5.25;;;20.00;99.90;;;;;;4993058;23;20058;-48
2021/08/19 11:03:42;;;;;;;11.18;4.80;;;20.00;99.90;;;;;;4962063;28;20031;-53
2021/08/19 11:06:17;;;;;;;7.95;4.72;;;19.90;99.90;;;;;;4958490;28;20023;-55
2021/08/19 11:08:47;;;;;;;8.60;5.45;;;19.80;99.90;;;;;;4965458;28;20066;-55
2021/08/19 11:11:35;;;;;;;8.88;4.80;;;19.80;99.90;;;;;;4963556;28;20031;-51
2021/08/19 11:14:01;;;;;;;9.15;4.63;;;19.80;99.90;;;;;;4963367;28;20015;-53
2021/08/19 11:16:27;;;;;;;7.72;4.88;;;19.60;99.90;;;;;;4966321;28;20533;-54
2021/08/19 11:18:53;;;;;;;6.82;4.53;;;19.60;99.90;;;;;;4967597;28;20050;-51
2021/08/19 11:21:18;;;;;;;7.57;5.35;;;19.40;99.90;;;;;;4963637;28;20129;-49
2021/08/19 11:23:46;;;;;;;10.10;5.05;;;19.30;99.90;;;;;;4966665;28;20405;-52
2021/08/19 11:26:19;;;;;;;8.10;4.90;;;19.30;99.90;;;;;;4960173;28;20034;-54
2021/08/19 11:28:48;;;;;;;8.95;4.95;;;19.40;99.90;;;;;;4982861;28;20058;-50
2021/08/19 11:31:20;;;;;;;7.68;4.97;;;19.40;99.90;;;;;;4964523;28;20031;-54
2021/08/19 11:33:47;;;;;;;7.90;4.65;;;19.40;99.90;;;;;;4961438;28;20059;-48
2021/08/19 11:36:15;;;;;;;12.18;5.65;;;19.40;99.90;;;;;;4966100;28;20039;-54
2021/08/19 11:38:42;;;;;;;9.23;5.13;;;19.30;99.90;;;;;;4964734;28;20392;-53
2021/08/19 11:41:21;;;;;;;8.98;4.65;;;19.40;99.90;;;;;;4968401;28;20022;-52
2021/08/19 11:43:47;;;;;;;6.30;4.53;;;19.50;99.90;;;;;;4961623;28;20015;-52
2021/08/19 11:46:23;;;;;;;9.50;5.38;;;19.60;99.90;;;;;;4968612;28;20023;-51
2021/08/19 11:48:50;;;;;;;9.68;5.30;;;19.60;99.90;;;;;;4951495;28;20035;-53
2021/08/19 11:51:36;;;;;;;10.48;5.50;;;19.70;99.90;;;;;;4953176;28;20078;-53
2021/08/19 11:54:03;;;;;;;9.45;5.28;;;19.70;99.90;;;;;;4948930;28;20090;-48
2021/08/19 11:56:31;;;;;;;9.57;5.28;;;19.70;99.90;;;;;;4950830;28;20027;-53
2021/08/19 11:59:11;;;;;;;8.27;5.20;;;19.70;99.90;;;;;;4950266;28;20371;-54
2021/08/19 12:01:55;;;;;;;8.77;5.22;;;19.70;99.90;;;;;;4945431;28;20158;-52
2021/08/19 12:04:31;;;;;;;9.38;6.05;;;19.70;99.90;;;;;;4951214;28;20019;-55
2021/08/19 12:06:58;;;;;;;9.93;4.95;;;19.80;99.90;;;;;;4951241;28;20035;-52
2021/08/19 12:09:24;;;;;;;8.85;5.72;;;19.70;99.90;;;;;;4950694;28;20113;-50
2021/08/19 12:11:51;;;;;;;8.25;5.20;;;19.80;99.90;;;;;;4965128;28;20477;-52
2021/08/19 12:14:24;;;;;;;7.75;4.85;;;19.80;99.90;;;;;;4945245;28;20031;-54
2021/08/19 12:16:52;;;;;;;8.13;4.60;;;19.80;99.90;;;;;;4951156;28;20545;-50
2021/08/19 12:19:20;;;;;;;7.38;4.78;;;19.80;99.90;;;;;;4944403;28;20626;-54
2021/08/19 12:21:52;;;;;;;9.07;4.55;;;19.80;99.90;;;;;;4960577;28;20018;-55
2021/08/19 12:24:31;;;;;;;10.10;5.03;;;19.80;99.90;;;;;;4943474;28;20024;-55
2021/08/19 12:27:02;;;;;;;7.53;5.13;;;19.80;99.90;;;;;;4946322;28;20027;-50
2021/08/19 12:29:29;;;;;;;8.35;5.32;;;19.80;99.90;;;;;;4954801;28;20023;-52
2021/08/19 12:31:57;;;;;;;7.10;4.65;;;19.80;99.90;;;;;;4948910;28;20031;-55
2021/08/19 12:34:23;;;;;;;8.25;5.80;;;19.70;99.90;;;;;;4942741;28;20023;-53
2021/08/19 12:36:48;;;;;;;7.53;4.63;;;19.70;99.90;;;;;;4949369;28;20019;-51
2021/08/19 12:39:26;;;;;;;10.45;4.85;;;19.80;99.90;;;;;;4949159;28;20027;-53
2021/08/19 12:42:09;;;;;;;9.90;5.93;;;19.80;99.90;;;;;;4949273;28;20047;-52
2021/08/19 12:44:36;;;;;;;8.40;5.30;;;20.00;99.90;;;;;;4949621;28;20409;-49
2021/08/19 12:47:02;;;;;;;8.15;5.20;;;20.10;99.90;;;;;;4950729;28;20204;-51
2021/08/19 12:49:32;;;;;;;6.53;5.10;;;20.10;99.90;;;;;;4949828;28;20023;-51